createdAt,value
2019-05-06T00:01:34.045Z,8.00
2019-05-06T00:04:04.875Z,8.10
2019-05-06T00:06:34.599Z,8.10
2019-05-06T00:09:05.469Z,8.10
2019-05-06T00:11:34.811Z,8.10
2019-05-06T00:14:04.160Z,8.00
2019-05-06T00:16:34.625Z,7.90
2019-05-06T00:19:04.787Z,7.80
2019-05-06T00:21:35.596Z,7.80
2019-05-06T00:24:04.645Z,7.80
2019-05-06T00:26:55.019Z,7.80
2019-05-06T00:29:26.059Z,7.70
2019-05-06T00:31:54.852Z,7.60
2019-05-06T00:34:24.576Z,7.80
2019-05-06T00:36:54.531Z,7.80
2019-05-06T00:39:57.740Z,7.90
2019-05-06T00:42:34.874Z,7.90
2019-05-06T00:45:24.410Z,7.90
2019-05-06T00:47:53.629Z,7.90
2019-05-06T00:50:23.974Z,7.70
2019-05-06T00:52:54.053Z,7.80
2019-05-06T00:55:24.144Z,7.70
2019-05-06T00:57:54.503Z,7.70
2019-05-06T01:00:28.537Z,7.70
2019-05-06T01:02:57.303Z,7.70
2019-05-06T01:05:26.249Z,7.70
2019-05-06T01:07:55.412Z,7.80
2019-05-06T01:10:24.926Z,7.80
2019-05-06T01:13:11.545Z,7.90
2019-05-06T01:15:40.725Z,7.90
2019-05-06T01:18:09.496Z,7.90
2019-05-06T01:20:38.260Z,8.00
2019-05-06T01:23:07.599Z,8.00
2019-05-06T01:25:36.364Z,7.90
2019-05-06T01:28:05.229Z,7.90
2019-05-06T01:30:33.989Z,7.90
2019-05-06T01:33:03.985Z,7.80
2019-05-06T01:35:35.041Z,7.80
2019-05-06T01:38:24.277Z,7.70
2019-05-06T01:41:03.976Z,7.50
2019-05-06T01:43:34.674Z,7.50
2019-05-06T01:46:04.720Z,7.50
2019-05-06T01:48:49.099Z,7.40
2019-05-06T01:51:19.287Z,7.40
2019-05-06T01:53:49.226Z,7.40
2019-05-06T01:56:18.342Z,7.30
2019-05-06T01:58:47.567Z,7.10
2019-05-06T02:01:16.549Z,7.10
2019-05-06T02:03:45.567Z,7.10
2019-05-06T02:06:14.476Z,7.20
2019-05-06T02:08:44.866Z,7.20
2019-05-06T02:11:14.862Z,7.20
2019-05-06T02:13:44.531Z,7.20
2019-05-06T02:16:14.530Z,7.10
2019-05-06T02:18:44.890Z,7.10
2019-05-06T02:21:19.546Z,7.10
2019-05-06T02:23:53.579Z,7.10
2019-05-06T02:26:23.915Z,7.20
2019-05-06T02:28:54.684Z,7.20
2019-05-06T02:31:41.341Z,7.20
2019-05-06T02:34:17.313Z,7.10
2019-05-06T02:37:05.949Z,7.10
2019-05-06T02:39:34.160Z,7.20
2019-05-06T02:42:04.067Z,7.10
2019-05-06T02:44:33.704Z,7.00
2019-05-06T02:47:23.451Z,7.10
2019-05-06T02:49:55.859Z,7.10
2019-05-06T02:52:24.625Z,7.10
2019-05-06T02:54:53.834Z,7.10
2019-05-06T02:57:23.738Z,7.10
2019-05-06T02:59:55.464Z,7.10
2019-05-06T03:02:37.972Z,7.10
2019-05-06T03:04:53.969Z,7.10
2019-05-06T03:07:23.435Z,7.00
2019-05-06T03:09:53.230Z,6.90
2019-05-06T03:12:23.018Z,7.00
2019-05-06T03:14:53.258Z,6.80
2019-05-06T03:17:23.484Z,6.70
2019-05-06T03:19:54.231Z,6.70
2019-05-06T03:22:43.615Z,6.70
2019-05-06T03:25:20.093Z,6.50
2019-05-06T03:27:49.168Z,6.40
2019-05-06T03:30:17.974Z,6.40
2019-05-06T03:33:18.701Z,6.40
2019-05-06T03:35:33.356Z,6.40
2019-05-06T03:37:48.162Z,6.40
2019-05-06T03:40:17.433Z,6.40
2019-05-06T03:42:46.213Z,6.30
2019-05-06T03:45:33.457Z,6.30
2019-05-06T03:48:08.556Z,6.30
2019-05-06T03:50:37.339Z,6.20
2019-05-06T03:53:08.148Z,6.10
2019-05-06T03:55:37.914Z,6.10
2019-05-06T03:58:07.848Z,6.10
2019-05-06T04:00:37.667Z,6.00
2019-05-06T04:03:06.462Z,6.00
2019-05-06T04:05:35.796Z,6.10
2019-05-06T04:08:04.701Z,6.20
2019-05-06T04:10:36.843Z,6.20
2019-05-06T04:13:05.508Z,6.10
2019-05-06T04:15:55.158Z,6.10
2019-05-06T04:18:25.427Z,6.10
2019-05-06T04:21:03.587Z,6.10
2019-05-06T04:23:46.658Z,6.00
2019-05-06T04:26:32.755Z,5.80
2019-05-06T04:29:03.520Z,5.90
2019-05-06T04:31:33.584Z,5.90
2019-05-06T04:34:13.851Z,5.90
2019-05-06T04:36:33.680Z,5.90
2019-05-06T04:39:04.165Z,5.90
2019-05-06T04:41:34.394Z,6.00
2019-05-06T04:44:03.674Z,6.10
2019-05-06T04:46:34.785Z,6.10
2019-05-06T04:49:04.227Z,6.10
2019-05-06T04:51:36.918Z,6.10
2019-05-06T04:54:05.022Z,6.20
2019-05-06T04:56:34.444Z,6.20
2019-05-06T04:59:06.348Z,6.30
2019-05-06T05:01:34.322Z,6.30
2019-05-06T05:04:03.653Z,6.40
2019-05-06T05:06:32.977Z,6.40
2019-05-06T05:11:42.575Z,6.50
2019-05-06T05:14:24.729Z,6.40
2019-05-06T05:16:54.275Z,6.50
2019-05-06T05:19:23.198Z,6.60
2019-05-06T05:21:55.737Z,6.70
2019-05-06T05:24:24.800Z,6.80
2019-05-06T05:26:53.831Z,6.80
2019-05-06T05:29:22.940Z,6.80
2019-05-06T05:31:52.979Z,6.80
2019-05-06T05:34:22.596Z,6.80
2019-05-06T05:36:52.632Z,6.80
2019-05-06T05:39:22.281Z,6.90
2019-05-06T05:41:52.950Z,7.00
2019-05-06T05:44:25.633Z,7.00
2019-05-06T05:46:54.468Z,7.00
2019-05-06T05:49:54.461Z,7.10
2019-05-06T05:52:23.393Z,7.20
2019-05-06T05:54:55.391Z,7.20
2019-05-06T05:57:23.149Z,7.30
2019-05-06T05:59:52.809Z,7.20
2019-05-06T06:02:22.470Z,7.20
2019-05-06T06:04:57.049Z,7.20
2019-05-06T06:07:23.042Z,7.20
2019-05-06T06:10:12.904Z,7.30
2019-05-06T06:12:42.911Z,7.50
2019-05-06T06:15:22.388Z,7.50
2019-05-06T06:18:00.299Z,7.50
2019-05-06T06:20:47.501Z,7.60
2019-05-06T06:23:23.124Z,7.70
2019-05-06T06:25:52.932Z,7.70
2019-05-06T06:28:23.222Z,7.80
2019-05-06T06:31:03.038Z,8.00
2019-05-06T06:33:33.047Z,7.90
2019-05-06T06:36:23.070Z,8.00
2019-05-06T06:39:07.399Z,8.00
2019-05-06T06:41:36.259Z,8.20
2019-05-06T06:44:08.744Z,8.20
2019-05-06T06:46:37.711Z,8.30
2019-05-06T06:49:06.473Z,8.40
2019-05-06T06:51:35.307Z,8.40
2019-05-06T06:54:04.852Z,8.60
2019-05-06T06:56:47.240Z,8.70
2019-05-06T06:59:23.764Z,8.70
2019-05-06T07:02:02.600Z,8.70
2019-05-06T07:04:36.416Z,8.80
2019-05-06T07:07:05.567Z,8.80
2019-05-06T07:09:34.347Z,8.80
2019-05-06T07:12:03.544Z,9.00
2019-05-06T07:14:35.980Z,9.10
2019-05-06T07:17:03.521Z,9.20
2019-05-06T07:19:42.235Z,9.30
2019-05-06T07:22:12.711Z,9.30
2019-05-06T07:24:43.141Z,9.20
2019-05-06T07:27:16.446Z,9.30
2019-05-06T07:29:48.410Z,9.20
2019-05-06T07:32:16.144Z,9.30
2019-05-06T07:34:45.236Z,9.40
2019-05-06T07:37:14.014Z,9.40
2019-05-06T07:39:43.038Z,9.70
2019-05-06T07:42:17.984Z,9.70
2019-05-06T07:44:55.025Z,9.80
2019-05-06T07:47:42.895Z,9.90
2019-05-06T07:50:13.054Z,9.90
2019-05-06T07:53:37.226Z,9.90
2019-05-06T07:56:06.131Z,9.80
2019-05-06T07:58:35.772Z,9.90
2019-05-06T08:01:04.680Z,9.80
2019-05-06T08:03:33.449Z,9.80
2019-05-06T08:06:02.753Z,9.70
2019-05-06T08:08:33.727Z,9.80
2019-05-06T08:11:02.833Z,9.80
2019-05-06T08:13:32.252Z,9.90
2019-05-06T08:16:02.216Z,9.90
2019-05-06T08:18:33.034Z,10.10
2019-05-06T08:21:03.637Z,10.30
2019-05-06T08:23:43.767Z,10.60
2019-05-06T08:26:16.615Z,10.70
2019-05-06T08:28:44.549Z,10.70
2019-05-06T08:31:14.212Z,10.80
2019-05-06T08:33:43.315Z,11.00
2019-05-06T08:36:17.172Z,11.10
2019-05-06T08:39:02.793Z,11.10
2019-05-06T08:41:33.207Z,10.90
2019-05-06T08:44:02.816Z,10.80
2019-05-06T08:46:32.730Z,10.90
2019-05-06T08:49:03.087Z,11.00
2019-05-06T08:51:42.665Z,11.00
2019-05-06T08:54:22.779Z,11.20
2019-05-06T08:56:52.406Z,11.30
2019-05-06T08:59:23.833Z,11.60
2019-05-06T09:01:53.419Z,11.70
2019-05-06T09:04:22.925Z,11.70
2019-05-06T09:06:53.361Z,11.70
2019-05-06T09:09:22.776Z,11.70
2019-05-06T09:11:53.523Z,11.80
2019-05-06T09:14:23.197Z,11.90
2019-05-06T09:16:53.812Z,11.90
2019-05-06T09:19:23.487Z,12.20
2019-05-06T09:21:53.370Z,12.30
2019-05-06T09:24:23.183Z,12.40
2019-05-06T09:27:08.368Z,12.30
2019-05-06T09:29:43.143Z,12.10
2019-05-06T09:32:16.789Z,12.00
2019-05-06T09:34:52.428Z,12.00
2019-05-06T09:37:23.594Z,12.00
2019-05-06T09:39:53.425Z,12.00
2019-05-06T09:42:23.040Z,12.20
2019-05-06T09:44:54.254Z,12.30
2019-05-06T09:47:30.236Z,12.30
2019-05-06T09:49:59.362Z,12.60
2019-05-06T09:52:28.546Z,12.70
2019-05-06T09:55:04.513Z,12.90
2019-05-06T09:57:52.286Z,12.70
2019-05-06T10:00:23.501Z,12.70
2019-05-06T10:02:52.817Z,12.80
2019-05-06T10:05:21.729Z,13.10
2019-05-06T10:07:52.388Z,13.20
2019-05-06T10:10:22.360Z,13.30
2019-05-06T10:12:53.011Z,13.00
2019-05-06T10:15:22.902Z,12.80
2019-05-06T10:18:07.208Z,12.70
2019-05-06T10:20:42.950Z,12.70
2019-05-06T10:23:12.812Z,12.50
2019-05-06T10:25:43.687Z,12.50
2019-05-06T10:28:27.680Z,12.60
2019-05-06T10:30:56.774Z,12.60
2019-05-06T10:33:26.755Z,12.70
2019-05-06T10:35:58.247Z,12.70
2019-05-06T10:38:47.047Z,12.70
2019-05-06T10:41:22.400Z,12.70
2019-05-06T10:44:03.000Z,12.60
2019-05-06T10:46:31.621Z,12.10
2019-05-06T10:49:02.549Z,12.10
2019-05-06T10:51:52.855Z,12.20
2019-05-06T10:54:22.915Z,12.20
2019-05-06T10:57:02.267Z,12.20
2019-05-06T10:59:32.599Z,12.20
2019-05-06T11:02:09.157Z,12.30
2019-05-06T11:04:37.952Z,12.50
2019-05-06T11:07:06.856Z,12.50
2019-05-06T11:09:55.125Z,12.60
2019-05-06T11:12:24.162Z,12.70
2019-05-06T11:14:55.669Z,12.80
2019-05-06T11:17:23.993Z,13.00
2019-05-06T11:19:53.297Z,13.00
2019-05-06T11:22:24.684Z,12.90
2019-05-06T11:24:52.996Z,13.00
2019-05-06T11:27:28.771Z,12.90
2019-05-06T11:29:53.819Z,12.90
2019-05-06T11:32:44.178Z,12.80
2019-05-06T11:35:32.644Z,13.00
2019-05-06T11:38:13.796Z,13.30
2019-05-06T11:40:42.605Z,13.60
2019-05-06T11:43:11.986Z,13.50
2019-05-06T11:45:42.754Z,13.30
2019-05-06T11:48:14.290Z,13.30
2019-05-06T11:50:44.802Z,13.30
2019-05-06T11:53:14.000Z,13.20
2019-05-06T11:55:42.770Z,13.10
2019-05-06T11:58:29.494Z,13.20
2019-05-06T12:01:02.775Z,13.20
2019-05-06T12:03:32.728Z,13.20
2019-05-06T12:06:03.697Z,13.10
2019-05-06T12:08:32.713Z,13.00
2019-05-06T12:11:02.933Z,13.00
2019-05-06T12:13:33.714Z,13.10
2019-05-06T12:16:02.641Z,12.90
2019-05-06T12:18:31.811Z,13.10
2019-05-06T12:21:09.086Z,13.20
2019-05-06T12:23:35.330Z,13.20
2019-05-06T12:26:02.433Z,13.20
2019-05-06T12:28:32.703Z,13.40
2019-05-06T12:31:01.645Z,13.50
2019-05-06T12:33:38.385Z,13.60
2019-05-06T12:36:17.345Z,13.60
2019-05-06T12:39:06.549Z,13.50
2019-05-06T12:41:37.228Z,13.20
2019-05-06T12:44:06.340Z,13.30
2019-05-06T12:46:38.403Z,13.30
2019-05-06T12:49:07.646Z,13.40
2019-05-06T12:51:36.912Z,13.60
2019-05-06T12:54:05.753Z,13.50
2019-05-06T12:56:34.621Z,13.50
2019-05-06T12:59:03.403Z,13.60
2019-05-06T13:01:33.902Z,13.70
2019-05-06T13:04:04.520Z,13.80
2019-05-06T13:06:33.551Z,13.70
2019-05-06T13:09:05.161Z,13.70
2019-05-06T13:11:33.039Z,13.80
2019-05-06T13:14:04.118Z,13.70
2019-05-06T13:16:33.404Z,13.70
2019-05-06T13:19:03.552Z,13.70
2019-05-06T13:21:33.028Z,13.50
2019-05-06T13:24:05.454Z,13.40
2019-05-06T13:26:34.493Z,13.30
2019-05-06T13:29:09.315Z,13.50
2019-05-06T13:31:38.104Z,13.70
2019-05-06T13:34:17.707Z,13.70
2019-05-06T13:36:46.938Z,13.90
2019-05-06T13:39:16.481Z,14.10
2019-05-06T13:41:45.648Z,14.10
2019-05-06T13:44:19.148Z,13.90
2019-05-06T13:46:53.520Z,13.90
2019-05-06T13:49:57.274Z,14.00
2019-05-06T13:52:28.568Z,14.10
2019-05-06T13:54:57.640Z,14.20
2019-05-06T13:57:29.024Z,14.00
2019-05-06T13:59:57.045Z,14.00
2019-05-06T14:02:49.721Z,14.00
2019-05-06T14:05:20.430Z,14.10
2019-05-06T14:07:49.618Z,14.10
2019-05-06T14:10:18.632Z,14.10
2019-05-06T14:12:47.841Z,14.10
2019-05-06T14:15:16.962Z,14.20
2019-05-06T14:17:45.744Z,14.10
2019-05-06T14:20:15.784Z,14.20
2019-05-06T14:22:44.867Z,14.40
2019-05-06T14:25:43.382Z,14.30
2019-05-06T14:28:32.391Z,14.10
2019-05-06T14:31:04.940Z,14.00
2019-05-06T14:33:33.797Z,14.00
2019-05-06T14:36:03.386Z,14.10
2019-05-06T14:38:32.624Z,14.20
2019-05-06T14:41:14.140Z,14.10
2019-05-06T14:43:43.206Z,14.20
2019-05-06T14:46:12.298Z,14.10
2019-05-06T14:48:42.996Z,14.10
2019-05-06T14:51:13.048Z,14.20
2019-05-06T14:53:43.712Z,14.30
2019-05-06T14:56:18.699Z,14.30
2019-05-06T14:59:03.695Z,14.30
2019-05-06T15:01:34.251Z,14.30
2019-05-06T15:04:03.128Z,14.10
2019-05-06T15:06:33.077Z,14.10
2019-05-06T15:09:03.761Z,14.20
2019-05-06T15:11:32.731Z,14.10
2019-05-06T15:14:03.478Z,14.10
2019-05-06T15:16:33.800Z,13.80
2019-05-06T15:19:04.000Z,13.60
2019-05-06T15:21:38.326Z,13.60
2019-05-06T15:24:04.575Z,13.10
2019-05-06T15:26:33.846Z,12.70
2019-05-06T15:29:03.474Z,12.60
2019-05-06T15:31:45.645Z,12.50
2019-05-06T15:34:18.354Z,12.50
2019-05-06T15:36:54.185Z,12.30
2019-05-06T15:39:23.673Z,12.20
2019-05-06T15:41:52.963Z,12.10
2019-05-06T15:44:23.324Z,12.00
2019-05-06T15:46:52.832Z,11.70
2019-05-06T15:49:22.422Z,11.70
2019-05-06T15:51:52.269Z,11.80
2019-05-06T15:54:22.706Z,11.70
2019-05-06T15:56:53.174Z,11.80
2019-05-06T15:59:22.907Z,11.70
2019-05-06T16:01:53.160Z,11.60
2019-05-06T16:04:22.950Z,11.50
2019-05-06T16:06:52.882Z,11.30
2019-05-06T16:09:23.401Z,11.30
2019-05-06T16:11:53.398Z,11.30
2019-05-06T16:14:23.069Z,11.40
2019-05-06T16:16:52.894Z,11.50
2019-05-06T16:19:22.980Z,11.60
2019-05-06T16:21:52.552Z,11.60
2019-05-06T16:24:26.221Z,11.60
2019-05-06T16:26:55.661Z,11.60
2019-05-06T16:29:38.540Z,11.70
2019-05-06T16:32:08.130Z,11.60
2019-05-06T16:34:36.905Z,11.60
2019-05-06T16:37:06.202Z,11.60
2019-05-06T16:39:35.521Z,11.60
2019-05-06T16:42:04.383Z,11.50
2019-05-06T16:44:33.243Z,11.30
2019-05-06T16:47:02.964Z,11.30
2019-05-06T16:49:33.219Z,11.30
2019-05-06T16:52:02.910Z,11.30
2019-05-06T16:54:34.579Z,11.20
2019-05-06T16:57:08.480Z,11.20
2019-05-06T16:59:37.269Z,11.00
2019-05-06T17:02:13.982Z,11.10
2019-05-06T17:05:03.478Z,11.20
2019-05-06T17:07:33.887Z,11.10
2019-05-06T17:10:22.755Z,11.20
2019-05-06T17:12:53.629Z,11.30
2019-05-06T17:15:23.003Z,11.30
2019-05-06T17:17:53.147Z,11.40
2019-05-06T17:20:22.823Z,11.40
2019-05-06T17:22:53.188Z,11.40
2019-05-06T17:25:22.505Z,11.50
2019-05-06T17:27:52.656Z,11.50
2019-05-06T17:30:35.506Z,11.60
2019-05-06T17:33:22.504Z,11.70
2019-05-06T17:35:52.154Z,11.60
2019-05-06T17:38:25.299Z,11.40
2019-05-06T17:40:54.153Z,11.40
2019-05-06T17:43:23.200Z,11.50
2019-05-06T17:46:02.360Z,11.60
2019-05-06T17:48:33.234Z,11.60
2019-05-06T17:51:09.180Z,11.60
2019-05-06T17:53:38.228Z,11.60
2019-05-06T17:56:07.437Z,11.50
2019-05-06T17:58:36.504Z,11.50
2019-05-06T18:01:06.333Z,11.40
2019-05-06T18:03:35.554Z,11.40
2019-05-06T18:06:09.141Z,11.50
2019-05-06T18:08:35.106Z,11.70
2019-05-06T18:11:04.234Z,11.80
2019-05-06T18:13:33.056Z,11.70
2019-05-06T18:16:03.590Z,11.70
2019-05-06T18:18:32.512Z,11.60
2019-05-06T18:21:02.547Z,11.60
2019-05-06T18:23:33.607Z,11.50
2019-05-06T18:26:03.150Z,11.40
2019-05-06T18:28:32.770Z,11.40
2019-05-06T18:31:03.080Z,11.30
2019-05-06T18:33:32.966Z,11.30
2019-05-06T18:36:02.996Z,11.30
2019-05-06T18:38:33.791Z,11.30
2019-05-06T18:41:02.934Z,11.30
2019-05-06T18:43:33.471Z,11.30
2019-05-06T18:46:02.960Z,11.30
2019-05-06T18:48:35.111Z,11.30
2019-05-06T18:51:03.176Z,11.30
2019-05-06T18:53:33.237Z,11.30
2019-05-06T18:56:03.165Z,11.30
2019-05-06T18:58:32.763Z,11.20
2019-05-06T19:01:03.802Z,11.10
2019-05-06T19:03:38.547Z,11.20
2019-05-06T19:06:07.385Z,11.10
2019-05-06T19:08:47.222Z,11.10
2019-05-06T19:11:16.194Z,11.10
2019-05-06T19:13:45.009Z,11.00
2019-05-06T19:16:13.810Z,11.10
2019-05-06T19:18:42.881Z,11.10
2019-05-06T19:21:13.430Z,11.00
2019-05-06T19:23:42.916Z,11.00
2019-05-06T19:26:12.378Z,11.00
2019-05-06T19:28:43.036Z,11.00
2019-05-06T19:31:12.426Z,11.00
2019-05-06T19:33:43.093Z,10.80
2019-05-06T19:36:12.668Z,10.80
2019-05-06T19:38:42.356Z,10.80
2019-05-06T19:41:12.834Z,10.70
2019-05-06T19:43:42.134Z,10.70
2019-05-06T19:46:12.139Z,10.70
2019-05-06T19:48:43.232Z,10.80
2019-05-06T19:51:11.924Z,10.90
2019-05-06T19:53:42.724Z,10.90
2019-05-06T19:56:12.355Z,10.90
2019-05-06T19:58:42.922Z,10.80
2019-05-06T20:01:12.354Z,10.70
2019-05-06T20:03:41.183Z,10.80
2019-05-06T20:06:29.116Z,10.90
2019-05-06T20:09:16.107Z,10.90
2019-05-06T20:11:45.285Z,10.90
2019-05-06T20:14:14.141Z,10.90
2019-05-06T20:16:42.912Z,10.90
2019-05-06T20:19:14.070Z,10.70
2019-05-06T20:21:42.625Z,10.70
2019-05-06T20:24:12.803Z,10.60
2019-05-06T20:26:43.033Z,10.60
2019-05-06T20:29:12.007Z,10.60
2019-05-06T20:31:42.760Z,10.50
2019-05-06T20:34:12.833Z,10.40
2019-05-06T20:36:41.895Z,10.40
2019-05-06T20:39:12.222Z,10.40
2019-05-06T20:41:42.538Z,10.40
2019-05-06T20:44:12.349Z,10.50
2019-05-06T20:46:42.932Z,10.50
2019-05-06T20:49:13.198Z,10.70
2019-05-06T20:51:42.467Z,10.70
2019-05-06T20:54:12.966Z,10.70
2019-05-06T20:56:42.234Z,10.70
2019-05-06T20:59:12.183Z,10.70
2019-05-06T21:01:42.441Z,10.60
2019-05-06T21:04:13.089Z,10.60
2019-05-06T21:06:42.568Z,10.60
2019-05-06T21:09:12.438Z,10.70
2019-05-06T21:11:42.065Z,10.60
2019-05-06T21:14:13.024Z,10.50
2019-05-06T21:16:42.374Z,10.40
2019-05-06T21:19:12.612Z,10.40
2019-05-06T21:21:43.165Z,10.30
2019-05-06T21:24:12.973Z,10.30
2019-05-06T21:26:42.962Z,10.30
2019-05-06T21:29:12.937Z,10.30
2019-05-06T21:31:42.365Z,10.30
2019-05-06T21:34:12.818Z,10.40
2019-05-06T21:36:42.400Z,10.30
2019-05-06T21:39:12.998Z,10.20
2019-05-06T21:41:42.781Z,10.20
2019-05-06T21:44:13.191Z,10.20
2019-05-06T21:46:43.038Z,10.30
2019-05-06T21:49:12.316Z,10.40
2019-05-06T21:51:42.553Z,10.30
2019-05-06T21:54:12.613Z,10.30
2019-05-06T21:56:42.540Z,10.30
2019-05-06T21:59:12.867Z,10.40
2019-05-06T22:01:42.965Z,10.50
2019-05-06T22:04:12.872Z,10.50
2019-05-06T22:06:42.777Z,10.50
2019-05-06T22:09:13.483Z,10.50
2019-05-06T22:11:42.527Z,10.50
2019-05-06T22:14:12.312Z,10.50
2019-05-06T22:16:43.532Z,10.50
2019-05-06T22:19:12.196Z,10.50
2019-05-06T22:21:57.230Z,10.50
2019-05-06T22:24:29.180Z,10.40
2019-05-06T22:26:58.289Z,10.40
2019-05-06T22:29:27.049Z,10.40
2019-05-06T22:31:55.827Z,10.30
2019-05-06T22:34:24.610Z,10.30
2019-05-06T22:36:54.270Z,10.20
2019-05-06T22:39:23.243Z,10.20
2019-05-06T22:41:52.115Z,10.20
2019-05-06T22:44:22.771Z,10.00
2019-05-06T22:46:51.734Z,10.00
2019-05-06T22:49:22.483Z,10.10
2019-05-06T22:51:52.141Z,10.00
2019-05-06T22:54:24.368Z,10.00
2019-05-06T22:56:52.373Z,10.00
2019-05-06T22:59:24.397Z,9.90
2019-05-06T23:02:01.828Z,9.80
2019-05-06T23:04:32.444Z,9.80
2019-05-06T23:07:04.580Z,9.90
2019-05-06T23:09:32.554Z,10.00
2019-05-06T23:12:02.450Z,9.90
2019-05-06T23:14:36.884Z,9.90
2019-05-06T23:17:03.193Z,10.00
2019-05-06T23:19:31.960Z,10.00
2019-05-06T23:22:04.052Z,10.10
2019-05-06T23:24:32.151Z,9.90
2019-05-06T23:27:02.359Z,9.80
2019-05-06T23:29:31.632Z,9.90
2019-05-06T23:32:02.859Z,9.90
2019-05-06T23:34:32.470Z,9.90
2019-05-06T23:37:26.102Z,9.80
2019-05-06T23:40:34.578Z,9.70
2019-05-06T23:43:39.472Z,9.70
2019-05-06T23:46:44.329Z,9.60
2019-05-06T23:49:49.533Z,9.60
2019-05-06T23:52:54.899Z,9.50
2019-05-06T23:56:02.621Z,9.40
2019-05-06T23:58:32.189Z,9.50
